createdAt,value
2023-03-06T00:00:56.544Z,11.90
2023-03-06T00:03:59.255Z,10.67
2023-03-06T00:07:01.874Z,11.43
2023-03-06T00:10:04.921Z,10.30
2023-03-06T00:13:13.711Z,10.40
2023-03-06T00:16:16.317Z,9.73
2023-03-06T00:19:18.931Z,10.20
2023-03-06T00:22:21.509Z,10.13
2023-03-06T00:25:24.958Z,9.37
2023-03-06T00:28:30.877Z,9.70
2023-03-06T00:31:33.854Z,9.10
2023-03-06T00:34:36.506Z,9.40
2023-03-06T00:37:39.468Z,9.37
2023-03-06T00:40:42.105Z,9.90
2023-03-06T00:43:46.057Z,8.67
2023-03-06T00:46:48.653Z,8.77
2023-03-06T00:49:51.666Z,8.33
2023-03-06T00:52:54.406Z,8.30
2023-03-06T00:55:57.004Z,8.70
2023-03-06T00:59:00.976Z,7.87
2023-03-06T01:02:04.223Z,8.40
2023-03-06T01:05:09.306Z,8.20
2023-03-06T01:08:11.928Z,7.63
2023-03-06T01:11:14.562Z,8.10
2023-03-06T01:14:19.277Z,7.30
2023-03-06T01:17:22.006Z,8.00
2023-03-06T01:20:25.198Z,8.43
2023-03-06T01:23:27.849Z,8.57
2023-03-06T01:26:30.448Z,7.83
2023-03-06T01:29:34.575Z,8.50
2023-03-06T01:32:37.206Z,7.63
2023-03-06T01:35:39.927Z,7.40
2023-03-06T01:38:42.726Z,7.57
2023-03-06T01:41:45.329Z,6.90
2023-03-06T01:45:05.615Z,7.27
2023-03-06T01:48:08.227Z,6.93
2023-03-06T01:51:11.248Z,6.60
2023-03-06T01:54:18.708Z,8.10
2023-03-06T01:57:24.934Z,7.73
2023-03-06T02:00:30.921Z,8.37
2023-03-06T02:03:34.607Z,8.33
2023-03-06T02:06:42.978Z,8.80
2023-03-06T02:09:45.596Z,7.97
2023-03-06T02:12:50.184Z,8.63
2023-03-06T02:15:54.182Z,9.13
2023-03-06T02:18:59.439Z,9.60
2023-03-06T02:22:02.171Z,9.87
2023-03-06T02:25:10.560Z,9.27
2023-03-06T02:28:18.407Z,8.70
2023-03-06T02:31:24.374Z,9.40
2023-03-06T02:34:50.597Z,9.47
2023-03-06T02:37:53.838Z,9.27
2023-03-06T02:40:58.028Z,9.67
2023-03-06T02:44:01.996Z,10.33
2023-03-06T02:47:04.621Z,10.63
2023-03-06T02:50:07.687Z,10.87
2023-03-06T02:53:11.701Z,12.70
2023-03-06T02:56:15.119Z,12.00
2023-03-06T02:59:19.153Z,11.63
2023-03-06T03:02:21.904Z,11.53
2023-03-06T03:05:24.968Z,11.33
2023-03-06T03:08:27.892Z,12.87
2023-03-06T03:11:30.526Z,13.33
2023-03-06T03:14:34.501Z,12.83
2023-03-06T03:17:37.260Z,12.70
2023-03-06T03:20:43.677Z,13.30
2023-03-06T03:23:46.420Z,14.13
2023-03-06T03:26:48.999Z,13.17
2023-03-06T03:29:53.068Z,11.20
2023-03-06T03:32:55.697Z,12.50
2023-03-06T03:35:59.022Z,10.33
2023-03-06T03:39:01.655Z,11.70
2023-03-06T03:42:04.488Z,12.77
2023-03-06T03:45:09.481Z,11.87
2023-03-06T03:48:12.227Z,12.80
2023-03-06T03:51:16.515Z,11.40
2023-03-06T03:54:19.150Z,12.80
2023-03-06T03:57:21.781Z,12.63
2023-03-06T04:00:25.895Z,12.87
2023-03-06T04:03:28.529Z,13.33
2023-03-06T04:06:31.428Z,13.03
2023-03-06T04:09:34.099Z,13.83
2023-03-06T04:12:37.611Z,12.63
2023-03-06T04:15:41.561Z,12.07
2023-03-06T04:18:44.140Z,12.27
2023-03-06T04:21:46.720Z,11.77
2023-03-06T04:24:49.862Z,11.40
2023-03-06T04:27:52.565Z,12.03
2023-03-06T04:30:56.538Z,10.77
2023-03-06T04:33:59.153Z,11.03
2023-03-06T04:37:02.657Z,10.63
2023-03-06T04:40:05.899Z,11.00
2023-03-06T04:43:08.572Z,11.30
2023-03-06T04:46:12.891Z,10.87
2023-03-06T04:49:15.517Z,10.63
2023-03-06T04:52:18.134Z,10.40
2023-03-06T04:55:21.058Z,9.60
2023-03-06T04:58:23.660Z,10.53
2023-03-06T05:01:27.767Z,10.70
2023-03-06T05:04:30.356Z,10.67
2023-03-06T05:07:32.992Z,9.83
2023-03-06T05:10:35.581Z,10.13
2023-03-06T05:13:38.191Z,9.83
2023-03-06T05:16:42.212Z,10.20
2023-03-06T05:19:44.810Z,11.00
2023-03-06T05:22:47.432Z,9.93
2023-03-06T05:25:50.024Z,10.13
2023-03-06T05:28:53.216Z,8.93
2023-03-06T05:31:57.228Z,9.93
2023-03-06T05:34:59.876Z,8.67
2023-03-06T05:38:02.660Z,9.17
2023-03-06T05:41:05.657Z,8.63
2023-03-06T05:44:08.249Z,9.67
2023-03-06T05:47:12.332Z,9.33
2023-03-06T05:50:15.049Z,9.63
2023-03-06T05:53:17.636Z,9.30
2023-03-06T05:56:21.740Z,9.33
2023-03-06T05:59:27.929Z,10.00
2023-03-06T06:02:32.089Z,10.23
2023-03-06T06:05:34.688Z,9.97
2023-03-06T06:08:38.790Z,9.30
2023-03-06T06:11:41.346Z,9.70
2023-03-06T06:14:43.982Z,10.07
2023-03-06T06:17:47.893Z,9.57
2023-03-06T06:20:50.620Z,9.63
2023-03-06T06:23:53.197Z,8.87
2023-03-06T06:26:58.248Z,8.57
2023-03-06T06:30:00.877Z,9.07
2023-03-06T06:33:04.807Z,8.73
2023-03-06T06:36:16.658Z,9.70
2023-03-06T06:39:21.196Z,8.83
2023-03-06T06:42:33.739Z,9.13
2023-03-06T06:45:39.702Z,8.70
2023-03-06T06:48:43.657Z,9.17
2023-03-06T06:51:46.316Z,8.70
2023-03-06T06:54:48.897Z,8.43
2023-03-06T06:57:51.475Z,8.50
2023-03-06T07:00:54.290Z,8.70
2023-03-06T07:03:58.294Z,8.80
2023-03-06T07:07:01.112Z,8.67
2023-03-06T07:10:05.449Z,8.30
2023-03-06T07:13:08.083Z,7.83
2023-03-06T07:16:10.760Z,8.40
2023-03-06T07:19:14.908Z,7.70
2023-03-06T07:22:17.731Z,8.43
2023-03-06T07:25:21.355Z,7.70
2023-03-06T07:28:24.509Z,7.70
2023-03-06T07:31:30.506Z,8.20
2023-03-06T07:34:34.535Z,8.20
2023-03-06T07:37:37.096Z,8.03
2023-03-06T07:40:39.767Z,7.90
2023-03-06T07:43:43.146Z,7.43
2023-03-06T07:46:45.829Z,7.30
2023-03-06T07:49:49.759Z,7.83
2023-03-06T07:52:52.741Z,6.90
2023-03-06T07:55:55.501Z,6.23
2023-03-06T07:58:58.100Z,7.27
2023-03-06T08:02:00.700Z,7.00
2023-03-06T08:05:05.232Z,6.80
2023-03-06T08:08:08.400Z,7.27
2023-03-06T08:11:12.585Z,7.13
2023-03-06T08:14:15.187Z,7.53
2023-03-06T08:17:17.779Z,9.53
2023-03-06T08:20:21.875Z,9.80
2023-03-06T08:23:24.470Z,10.43
2023-03-06T08:26:28.556Z,11.40
2023-03-06T08:29:32.346Z,11.60
2023-03-06T08:32:36.036Z,11.70
2023-03-06T08:35:40.025Z,12.77
2023-03-06T08:38:42.636Z,12.83
2023-03-06T08:41:45.798Z,13.03
2023-03-06T08:44:48.383Z,13.90
2023-03-06T08:47:50.968Z,13.47
2023-03-06T08:50:55.019Z,14.30
2023-03-06T08:53:58.356Z,13.50
2023-03-06T08:57:00.951Z,12.80
2023-03-06T09:00:05.892Z,11.97
2023-03-06T09:03:08.480Z,10.90
2023-03-06T09:06:13.018Z,11.30
2023-03-06T09:09:15.567Z,10.63
2023-03-06T09:12:18.157Z,11.20
2023-03-06T09:15:22.012Z,10.17
2023-03-06T09:18:24.640Z,10.50
2023-03-06T09:21:28.802Z,10.60
2023-03-06T09:24:31.420Z,11.17
2023-03-06T09:27:34.140Z,12.27
2023-03-06T09:30:36.739Z,11.90
2023-03-06T09:33:39.756Z,10.60
2023-03-06T09:36:55.846Z,10.97
2023-03-06T09:40:00.111Z,10.27
2023-03-06T09:43:02.748Z,9.73
2023-03-06T09:46:17.781Z,9.43
2023-03-06T09:49:38.739Z,9.77
2023-03-06T09:52:53.313Z,9.30
2023-03-06T09:56:03.161Z,9.10
2023-03-06T09:59:12.968Z,9.63
2023-03-06T10:02:19.782Z,9.33
2023-03-06T10:05:25.326Z,7.70
2023-03-06T10:08:36.486Z,7.40
2023-03-06T10:11:44.370Z,6.70
2023-03-06T10:14:53.874Z,7.37
2023-03-06T10:17:57.440Z,7.00
2023-03-06T10:21:18.375Z,6.87
2023-03-06T10:24:36.734Z,6.17
2023-03-06T10:27:46.753Z,6.33
2023-03-06T10:30:57.345Z,6.47
2023-03-06T10:34:15.770Z,7.20
2023-03-06T10:37:20.504Z,7.80
2023-03-06T10:40:31.934Z,7.53
2023-03-06T10:43:36.510Z,7.80
2023-03-06T10:46:42.281Z,7.47
2023-03-06T10:49:58.660Z,7.37
2023-03-06T10:53:04.898Z,7.90
2023-03-06T10:56:08.867Z,8.23
2023-03-06T10:59:14.090Z,7.57
2023-03-06T11:02:26.710Z,6.87
2023-03-06T11:05:29.314Z,5.67
2023-03-06T11:08:32.855Z,6.13
2023-03-06T11:11:38.120Z,5.37
2023-03-06T11:14:40.847Z,5.30
2023-03-06T11:17:51.388Z,5.93
2023-03-06T11:20:56.179Z,5.17
2023-03-06T11:24:04.417Z,4.60
2023-03-06T11:27:22.225Z,4.80
2023-03-06T11:30:27.448Z,4.50
2023-03-06T11:33:35.081Z,4.53
2023-03-06T11:36:44.835Z,4.10
2023-03-06T11:39:54.676Z,4.20
2023-03-06T11:43:03.744Z,3.90
2023-03-06T11:46:11.694Z,3.60
2023-03-06T11:49:22.236Z,3.90
2023-03-06T11:52:33.184Z,3.60
2023-03-06T11:55:46.118Z,3.30
2023-03-06T11:59:02.813Z,3.53
2023-03-06T12:02:20.364Z,3.37
2023-03-06T12:05:35.726Z,3.00
2023-03-06T12:08:52.887Z,2.70
2023-03-06T12:12:15.146Z,2.63
2023-03-06T12:15:28.122Z,2.43
2023-03-06T12:18:40.468Z,2.73
2023-03-06T12:21:56.130Z,2.67
2023-03-06T12:25:21.949Z,2.17
2023-03-06T12:28:40.096Z,2.33
2023-03-06T12:31:54.742Z,2.53
2023-03-06T12:35:09.406Z,2.57
2023-03-06T12:38:33.317Z,2.33
2023-03-06T12:41:52.702Z,2.00
2023-03-06T12:45:05.797Z,2.30
2023-03-06T12:48:17.333Z,2.57
2023-03-06T12:51:21.977Z,1.93
2023-03-06T12:54:28.809Z,1.80
2023-03-06T12:57:31.461Z,1.80
2023-03-06T13:01:04.729Z,1.60
2023-03-06T13:04:40.929Z,2.10
2023-03-06T13:07:58.039Z,1.87
2023-03-06T13:11:18.600Z,1.70
2023-03-06T13:14:24.677Z,1.20
2023-03-06T13:17:33.149Z,1.37
2023-03-06T13:20:43.684Z,1.20
2023-03-06T13:23:52.417Z,1.60
2023-03-06T13:27:01.161Z,1.10
2023-03-06T13:30:25.622Z,1.10
2023-03-06T13:33:57.546Z,1.23
2023-03-06T13:37:33.712Z,1.03
2023-03-06T13:40:37.791Z,1.50
2023-03-06T13:43:45.082Z,1.20
2023-03-06T13:46:58.445Z,1.33
2023-03-06T13:50:01.318Z,1.27
2023-03-06T13:53:36.325Z,1.17
2023-03-06T13:56:59.020Z,1.20
2023-03-06T14:00:15.275Z,1.70
2023-03-06T14:03:47.589Z,1.17
2023-03-06T14:07:05.558Z,1.33
2023-03-06T14:10:21.901Z,1.10
2023-03-06T14:13:35.179Z,1.10
2023-03-06T14:16:49.866Z,1.40
2023-03-06T14:19:53.118Z,1.47
2023-03-06T14:23:16.330Z,1.10
2023-03-06T14:26:21.490Z,1.53
2023-03-06T14:29:27.153Z,1.43
2023-03-06T14:32:30.168Z,1.40
2023-03-06T14:35:34.255Z,1.80
2023-03-06T14:38:43.390Z,1.47
2023-03-06T14:41:45.990Z,1.30
2023-03-06T14:45:00.793Z,1.67
2023-03-06T14:48:03.389Z,1.43
2023-03-06T14:51:07.287Z,1.67
2023-03-06T14:54:16.464Z,1.60
2023-03-06T14:57:21.080Z,1.20
2023-03-06T15:00:30.590Z,1.27
2023-03-06T15:03:43.587Z,1.70
2023-03-06T15:06:46.709Z,1.40
2023-03-06T15:09:51.847Z,1.70
2023-03-06T15:12:54.646Z,1.50
2023-03-06T15:16:00.783Z,1.40
2023-03-06T15:19:05.455Z,1.37
2023-03-06T15:22:26.665Z,1.40
2023-03-06T15:25:30.526Z,1.50
2023-03-06T15:28:36.941Z,1.57
2023-03-06T15:31:42.417Z,1.60
2023-03-06T15:34:45.137Z,2.00
2023-03-06T15:37:47.817Z,2.43
2023-03-06T15:40:56.721Z,2.60
2023-03-06T15:44:00.455Z,3.40
2023-03-06T15:47:11.560Z,3.70
2023-03-06T15:50:16.133Z,4.10
2023-03-06T15:53:19.576Z,4.30
2023-03-06T15:56:28.268Z,4.17
2023-03-06T15:59:33.060Z,4.00
2023-03-06T16:02:37.152Z,3.70
2023-03-06T16:05:39.949Z,3.83
2023-03-06T16:08:42.557Z,3.30
2023-03-06T16:11:46.892Z,3.10
2023-03-06T16:14:50.309Z,2.70
2023-03-06T16:17:54.462Z,2.80
2023-03-06T16:20:57.325Z,2.10
2023-03-06T16:24:00.356Z,2.23
2023-03-06T16:27:03.595Z,2.57
2023-03-06T16:30:07.336Z,2.00
2023-03-06T16:33:12.401Z,2.27
2023-03-06T16:36:17.723Z,2.20
2023-03-06T16:39:22.177Z,2.40
2023-03-06T16:42:24.770Z,2.30
2023-03-06T16:45:27.339Z,2.40
2023-03-06T16:48:31.269Z,2.30
2023-03-06T16:51:34.096Z,2.13
2023-03-06T16:54:36.678Z,2.40
2023-03-06T16:57:39.370Z,1.97
2023-03-06T17:00:42.273Z,2.53
2023-03-06T17:03:46.958Z,2.20
2023-03-06T17:06:49.546Z,2.20
2023-03-06T17:09:52.127Z,2.10
2023-03-06T17:12:55.137Z,2.70
2023-03-06T17:15:59.391Z,2.40
2023-03-06T17:19:03.443Z,2.23
2023-03-06T17:22:06.161Z,2.40
2023-03-06T17:25:09.848Z,2.10
2023-03-06T17:28:12.958Z,2.23
2023-03-06T17:31:17.394Z,2.57
2023-03-06T17:34:23.632Z,2.37
2023-03-06T17:37:27.281Z,2.70
2023-03-06T17:40:30.136Z,1.97
2023-03-06T17:43:32.803Z,2.50
2023-03-06T17:46:35.594Z,2.50
2023-03-06T17:49:39.565Z,2.53
2023-03-06T17:52:42.131Z,2.80
2023-03-06T17:55:44.848Z,2.20
2023-03-06T17:58:47.523Z,2.63
2023-03-06T18:01:50.153Z,2.50
2023-03-06T18:04:56.755Z,2.37
2023-03-06T18:07:59.379Z,2.87
2023-03-06T18:11:03.630Z,3.83
2023-03-06T18:14:06.260Z,3.60
2023-03-06T18:17:08.938Z,3.43
2023-03-06T18:20:13.492Z,3.33
2023-03-06T18:23:16.517Z,3.47
2023-03-06T18:26:21.245Z,3.30
2023-03-06T18:29:23.837Z,4.07
2023-03-06T18:32:26.460Z,4.50
2023-03-06T18:35:30.539Z,4.60
2023-03-06T18:38:33.145Z,4.40
2023-03-06T18:41:36.115Z,4.90
2023-03-06T18:44:38.720Z,5.60
2023-03-06T18:47:41.832Z,4.90
2023-03-06T18:50:45.738Z,3.63
2023-03-06T18:53:48.656Z,4.03
2023-03-06T18:56:51.274Z,6.03
2023-03-06T18:59:55.122Z,6.03
2023-03-06T19:02:57.824Z,4.57
2023-03-06T19:06:05.758Z,5.47
2023-03-06T19:09:09.253Z,5.43
2023-03-06T19:12:11.960Z,5.47
2023-03-06T19:15:15.475Z,4.37
2023-03-06T19:18:18.934Z,3.93
2023-03-06T19:21:24.452Z,4.10
2023-03-06T19:24:27.080Z,3.90
2023-03-06T19:27:30.101Z,4.80
2023-03-06T19:30:32.821Z,4.77
2023-03-06T19:33:37.376Z,3.63
2023-03-06T19:36:41.320Z,3.73
2023-03-06T19:39:44.436Z,3.50
2023-03-06T19:42:47.183Z,3.03
2023-03-06T19:45:49.801Z,3.67
2023-03-06T19:48:56.098Z,3.60
2023-03-06T19:52:00.508Z,3.90
2023-03-06T19:55:03.808Z,3.63
2023-03-06T19:58:07.119Z,3.53
2023-03-06T20:01:11.844Z,3.47
2023-03-06T20:04:14.619Z,3.30
2023-03-06T20:07:18.605Z,3.00
2023-03-06T20:10:21.451Z,3.40
2023-03-06T20:13:24.075Z,3.50
2023-03-06T20:16:28.784Z,3.00
2023-03-06T20:19:31.397Z,3.37
2023-03-06T20:22:35.338Z,4.00
2023-03-06T20:25:38.444Z,3.50
2023-03-06T20:28:42.697Z,3.77
2023-03-06T20:31:45.288Z,3.77
2023-03-06T20:34:47.923Z,3.63
2023-03-06T20:37:51.861Z,4.27
2023-03-06T20:40:57.654Z,3.20
2023-03-06T20:44:01.057Z,4.23
2023-03-06T20:47:03.703Z,4.00
2023-03-06T20:50:07.204Z,3.70
2023-03-06T20:53:11.296Z,3.90
2023-03-06T20:56:15.214Z,3.83
2023-03-06T20:59:17.830Z,3.67
2023-03-06T21:02:20.409Z,3.80
2023-03-06T21:05:23.022Z,4.13
2023-03-06T21:08:27.091Z,3.50
2023-03-06T21:11:29.861Z,3.30
2023-03-06T21:14:32.676Z,3.63
2023-03-06T21:17:35.252Z,2.97
2023-03-06T21:20:39.657Z,3.00
2023-03-06T21:23:43.913Z,3.27
2023-03-06T21:26:46.496Z,3.07
2023-03-06T21:29:49.048Z,3.50
2023-03-06T21:32:52.644Z,3.33
2023-03-06T21:35:55.376Z,3.10
2023-03-06T21:38:59.394Z,3.07
2023-03-06T21:42:02.047Z,3.37
2023-03-06T21:45:05.003Z,3.37
2023-03-06T21:48:07.764Z,3.07
2023-03-06T21:51:12.366Z,3.23
2023-03-06T21:54:16.369Z,3.47
2023-03-06T21:57:18.993Z,3.23
2023-03-06T22:00:23.546Z,3.33
2023-03-06T22:03:26.161Z,3.63
2023-03-06T22:06:30.067Z,3.00
2023-03-06T22:09:36.756Z,3.10
2023-03-06T22:12:40.156Z,3.50
2023-03-06T22:15:50.792Z,3.40
2023-03-06T22:18:53.366Z,3.33
2023-03-06T22:21:56.055Z,3.30
2023-03-06T22:25:00.020Z,3.37
2023-03-06T22:28:02.662Z,2.97
2023-03-06T22:31:07.298Z,3.33
2023-03-06T22:34:10.581Z,2.83
2023-03-06T22:37:13.195Z,2.93
2023-03-06T22:40:17.491Z,3.10
2023-03-06T22:43:20.075Z,3.57
2023-03-06T22:46:22.770Z,3.80
2023-03-06T22:49:25.581Z,3.60
2023-03-06T22:52:28.183Z,3.40
2023-03-06T22:55:32.153Z,3.43
2023-03-06T22:58:37.154Z,3.57
2023-03-06T23:01:39.910Z,3.67
2023-03-06T23:04:42.679Z,4.10
2023-03-06T23:07:45.376Z,3.93
2023-03-06T23:10:49.309Z,4.33
2023-03-06T23:13:51.893Z,5.00
2023-03-06T23:16:54.481Z,4.70
2023-03-06T23:19:57.067Z,4.70
2023-03-06T23:23:00.036Z,4.47
2023-03-06T23:26:04.131Z,5.63
2023-03-06T23:29:06.816Z,5.60
2023-03-06T23:32:09.523Z,6.63
2023-03-06T23:35:12.167Z,6.60
2023-03-06T23:38:15.080Z,7.43
2023-03-06T23:41:20.742Z,7.20
2023-03-06T23:44:23.400Z,8.27
2023-03-06T23:47:25.957Z,8.80
2023-03-06T23:50:28.566Z,8.50
2023-03-06T23:53:31.168Z,8.67
2023-03-06T23:56:35.225Z,9.50
2023-03-06T23:59:38.053Z,9.67
